sensor_id;sensor_type;location;lat;lon;timestamp;P1;durP1;ratioP1;P2;durP2;ratioP2
1593;SDS011;790;47.000;16.084;2023-02-20T00:00:25;1.83;;;1.73;;
1593;SDS011;790;47.000;16.084;2023-02-20T00:02:55;2.27;;;2.07;;
1593;SDS011;790;47.000;16.084;2023-02-20T00:05:22;2.50;;;2.30;;
1593;SDS011;790;47.000;16.084;2023-02-20T00:07:50;1.57;;;1.47;;
1593;SDS011;790;47.000;16.084;2023-02-20T00:10:17;1.63;;;1.53;;
1593;SDS011;790;47.000;16.084;2023-02-20T00:12:45;1.57;;;1.30;;
1593;SDS011;790;47.000;16.084;2023-02-20T00:15:13;2.97;;;2.00;;
1593;SDS011;790;47.000;16.084;2023-02-20T00:17:43;1.80;;;1.70;;
1593;SDS011;790;47.000;16.084;2023-02-20T00:20:13;2.20;;;1.80;;
1593;SDS011;790;47.000;16.084;2023-02-20T00:22:41;2.30;;;2.10;;
1593;SDS011;790;47.000;16.084;2023-02-20T00:25:08;3.10;;;2.10;;
1593;SDS011;790;47.000;16.084;2023-02-20T00:27:36;2.17;;;1.70;;
1593;SDS011;790;47.000;16.084;2023-02-20T00:30:03;2.30;;;1.20;;
1593;SDS011;790;47.000;16.084;2023-02-20T00:32:31;1.60;;;1.50;;
1593;SDS011;790;47.000;16.084;2023-02-20T00:34:59;2.20;;;1.57;;
1593;SDS011;790;47.000;16.084;2023-02-20T00:37:28;1.60;;;1.50;;
1593;SDS011;790;47.000;16.084;2023-02-20T00:39:55;1.80;;;1.70;;
1593;SDS011;790;47.000;16.084;2023-02-20T00:42:22;2.87;;;1.70;;
1593;SDS011;790;47.000;16.084;2023-02-20T00:44:49;1.70;;;1.60;;
1593;SDS011;790;47.000;16.084;2023-02-20T00:47:16;1.47;;;1.37;;
1593;SDS011;790;47.000;16.084;2023-02-20T00:49:43;1.70;;;1.60;;
1593;SDS011;790;47.000;16.084;2023-02-20T00:52:10;1.77;;;1.67;;
1593;SDS011;790;47.000;16.084;2023-02-20T00:54:39;2.10;;;1.90;;
1593;SDS011;790;47.000;16.084;2023-02-20T00:57:06;1.83;;;1.70;;
1593;SDS011;790;47.000;16.084;2023-02-20T00:59:33;1.87;;;1.47;;
1593;SDS011;790;47.000;16.084;2023-02-20T01:02:01;2.70;;;1.73;;
1593;SDS011;790;47.000;16.084;2023-02-20T01:04:28;1.40;;;1.30;;
1593;SDS011;790;47.000;16.084;2023-02-20T01:06:55;1.27;;;1.27;;
1593;SDS011;790;47.000;16.084;2023-02-20T01:09:22;2.77;;;1.70;;
1593;SDS011;790;47.000;16.084;2023-02-20T01:11:52;1.50;;;1.40;;
1593;SDS011;790;47.000;16.084;2023-02-20T01:14:20;1.40;;;1.30;;
1593;SDS011;790;47.000;16.084;2023-02-20T01:16:49;1.57;;;1.47;;
1593;SDS011;790;47.000;16.084;2023-02-20T01:19:18;2.00;;;1.50;;
1593;SDS011;790;47.000;16.084;2023-02-20T01:21:46;2.63;;;2.43;;
1593;SDS011;790;47.000;16.084;2023-02-20T01:24:13;3.10;;;2.07;;
1593;SDS011;790;47.000;16.084;2023-02-20T01:26:41;1.50;;;1.40;;
1593;SDS011;790;47.000;16.084;2023-02-20T01:29:10;1.70;;;1.60;;
1593;SDS011;790;47.000;16.084;2023-02-20T01:31:37;2.00;;;1.87;;
1593;SDS011;790;47.000;16.084;2023-02-20T01:34:05;1.60;;;1.50;;
1593;SDS011;790;47.000;16.084;2023-02-20T01:36:32;2.43;;;1.30;;
1593;SDS011;790;47.000;16.084;2023-02-20T01:38:59;1.90;;;1.80;;
1593;SDS011;790;47.000;16.084;2023-02-20T01:41:26;1.40;;;1.33;;
1593;SDS011;790;47.000;16.084;2023-02-20T01:43:54;1.63;;;1.57;;
1593;SDS011;790;47.000;16.084;2023-02-20T01:46:42;1.73;;;1.60;;
1593;SDS011;790;47.000;16.084;2023-02-20T01:49:16;1.43;;;1.43;;
1593;SDS011;790;47.000;16.084;2023-02-20T01:51:48;2.20;;;1.60;;
1593;SDS011;790;47.000;16.084;2023-02-20T01:54:20;2.00;;;1.90;;
1593;SDS011;790;47.000;16.084;2023-02-20T01:56:49;2.50;;;2.40;;
1593;SDS011;790;47.000;16.084;2023-02-20T01:59:18;2.60;;;2.50;;
1593;SDS011;790;47.000;16.084;2023-02-20T02:01:50;3.17;;;2.87;;
1593;SDS011;790;47.000;16.084;2023-02-20T02:04:18;2.73;;;2.63;;
1593;SDS011;790;47.000;16.084;2023-02-20T02:06:47;3.43;;;3.13;;
1593;SDS011;790;47.000;16.084;2023-02-20T02:09:19;3.57;;;3.27;;
1593;SDS011;790;47.000;16.084;2023-02-20T02:11:51;3.30;;;3.10;;
1593;SDS011;790;47.000;16.084;2023-02-20T02:14:18;3.80;;;3.50;;
1593;SDS011;790;47.000;16.084;2023-02-20T02:16:48;3.30;;;3.10;;
1593;SDS011;790;47.000;16.084;2023-02-20T02:19:31;3.70;;;3.50;;
1593;SDS011;790;47.000;16.084;2023-02-20T02:22:24;3.63;;;3.40;;
1593;SDS011;790;47.000;16.084;2023-02-20T02:25:16;4.53;;;3.10;;
1593;SDS011;790;47.000;16.084;2023-02-20T02:27:56;3.53;;;3.30;;
1593;SDS011;790;47.000;16.084;2023-02-20T02:31:03;3.13;;;2.93;;
1593;SDS011;790;47.000;16.084;2023-02-20T02:36:52;3.50;;;3.20;;
1593;SDS011;790;47.000;16.084;2023-02-20T02:39:28;3.67;;;3.33;;
1593;SDS011;790;47.000;16.084;2023-02-20T02:42:07;3.00;;;2.80;;
1593;SDS011;790;47.000;16.084;2023-02-20T02:44:43;3.10;;;2.90;;
1593;SDS011;790;47.000;16.084;2023-02-20T02:47:17;3.60;;;3.40;;
1593;SDS011;790;47.000;16.084;2023-02-20T02:49:50;3.33;;;3.13;;
1593;SDS011;790;47.000;16.084;2023-02-20T02:52:23;3.57;;;3.33;;
1593;SDS011;790;47.000;16.084;2023-02-20T02:55:15;3.57;;;3.33;;
1593;SDS011;790;47.000;16.084;2023-02-20T02:57:43;3.27;;;3.07;;
1593;SDS011;790;47.000;16.084;2023-02-20T03:00:11;3.40;;;3.10;;
1593;SDS011;790;47.000;16.084;2023-02-20T03:02:43;3.47;;;3.00;;
1593;SDS011;790;47.000;16.084;2023-02-20T03:05:17;3.10;;;2.90;;
1593;SDS011;790;47.000;16.084;2023-02-20T03:07:50;3.60;;;3.30;;
1593;SDS011;790;47.000;16.084;2023-02-20T03:10:21;3.43;;;3.13;;
1593;SDS011;790;47.000;16.084;2023-02-20T03:12:57;3.07;;;2.87;;
1593;SDS011;790;47.000;16.084;2023-02-20T03:15:29;3.40;;;3.10;;
1593;SDS011;790;47.000;16.084;2023-02-20T03:18:13;4.77;;;2.57;;
1593;SDS011;790;47.000;16.084;2023-02-20T03:20:48;2.70;;;2.50;;
1593;SDS011;790;47.000;16.084;2023-02-20T03:23:22;3.23;;;3.03;;
1593;SDS011;790;47.000;16.084;2023-02-20T03:25:52;3.20;;;3.00;;
1593;SDS011;790;47.000;16.084;2023-02-20T03:28:22;2.80;;;2.70;;
1593;SDS011;790;47.000;16.084;2023-02-20T03:30:53;2.57;;;2.37;;
1593;SDS011;790;47.000;16.084;2023-02-20T03:33:25;2.93;;;2.70;;
1593;SDS011;790;47.000;16.084;2023-02-20T03:36:18;2.80;;;2.60;;
1593;SDS011;790;47.000;16.084;2023-02-20T03:39:09;2.93;;;2.70;;
1593;SDS011;790;47.000;16.084;2023-02-20T03:41:58;2.83;;;2.63;;
1593;SDS011;790;47.000;16.084;2023-02-20T03:44:44;2.50;;;2.40;;
1593;SDS011;790;47.000;16.084;2023-02-20T03:47:13;2.83;;;2.40;;
1593;SDS011;790;47.000;16.084;2023-02-20T03:49:44;2.87;;;2.67;;
1593;SDS011;790;47.000;16.084;2023-02-20T03:52:13;2.63;;;2.50;;
1593;SDS011;790;47.000;16.084;2023-02-20T03:54:43;2.60;;;2.40;;
1593;SDS011;790;47.000;16.084;2023-02-20T03:57:12;2.40;;;2.20;;
1593;SDS011;790;47.000;16.084;2023-02-20T03:59:41;2.73;;;2.57;;
1593;SDS011;790;47.000;16.084;2023-02-20T04:02:13;2.80;;;2.07;;
1593;SDS011;790;47.000;16.084;2023-02-20T04:04:46;2.30;;;2.13;;
1593;SDS011;790;47.000;16.084;2023-02-20T04:07:18;2.83;;;2.63;;
1593;SDS011;790;47.000;16.084;2023-02-20T04:09:51;2.60;;;2.50;;
1593;SDS011;790;47.000;16.084;2023-02-20T04:12:22;2.50;;;2.30;;
1593;SDS011;790;47.000;16.084;2023-02-20T04:14:52;2.40;;;2.30;;
1593;SDS011;790;47.000;16.084;2023-02-20T04:17:23;2.40;;;2.10;;
1593;SDS011;790;47.000;16.084;2023-02-20T04:19:53;2.40;;;2.20;;
1593;SDS011;790;47.000;16.084;2023-02-20T04:22:21;2.40;;;2.20;;
1593;SDS011;790;47.000;16.084;2023-02-20T04:24:53;2.20;;;2.10;;
1593;SDS011;790;47.000;16.084;2023-02-20T04:27:24;2.70;;;2.50;;
1593;SDS011;790;47.000;16.084;2023-02-20T04:29:51;2.70;;;2.50;;
1593;SDS011;790;47.000;16.084;2023-02-20T04:32:18;2.10;;;2.00;;
1593;SDS011;790;47.000;16.084;2023-02-20T04:34:46;3.10;;;2.20;;
1593;SDS011;790;47.000;16.084;2023-02-20T04:37:14;2.97;;;2.77;;
1593;SDS011;790;47.000;16.084;2023-02-20T04:39:43;4.50;;;2.30;;
1593;SDS011;790;47.000;16.084;2023-02-20T04:42:12;2.50;;;2.40;;
1593;SDS011;790;47.000;16.084;2023-02-20T04:44:39;2.47;;;2.30;;
1593;SDS011;790;47.000;16.084;2023-02-20T04:47:10;2.43;;;2.20;;
1593;SDS011;790;47.000;16.084;2023-02-20T04:49:39;2.27;;;2.10;;
1593;SDS011;790;47.000;16.084;2023-02-20T04:52:06;2.47;;;2.27;;
1593;SDS011;790;47.000;16.084;2023-02-20T04:54:33;3.03;;;2.10;;
1593;SDS011;790;47.000;16.084;2023-02-20T04:57:00;2.33;;;2.17;;
1593;SDS011;790;47.000;16.084;2023-02-20T04:59:29;2.00;;;1.90;;
1593;SDS011;790;47.000;16.084;2023-02-20T05:01:56;2.40;;;2.20;;
1593;SDS011;790;47.000;16.084;2023-02-20T05:04:26;2.27;;;2.17;;
1593;SDS011;790;47.000;16.084;2023-02-20T05:06:54;2.13;;;2.03;;
1593;SDS011;790;47.000;16.084;2023-02-20T05:09:22;2.20;;;2.07;;
1593;SDS011;790;47.000;16.084;2023-02-20T05:11:49;1.80;;;1.70;;
1593;SDS011;790;47.000;16.084;2023-02-20T05:14:17;3.93;;;2.00;;
1593;SDS011;790;47.000;16.084;2023-02-20T05:16:45;1.90;;;1.80;;
1593;SDS011;790;47.000;16.084;2023-02-20T05:19:15;2.00;;;1.90;;
1593;SDS011;790;47.000;16.084;2023-02-20T05:21:43;2.00;;;1.90;;
1593;SDS011;790;47.000;16.084;2023-02-20T05:24:28;3.43;;;2.10;;
1593;SDS011;790;47.000;16.084;2023-02-20T05:26:56;2.80;;;2.13;;
1593;SDS011;790;47.000;16.084;2023-02-20T05:29:23;2.40;;;2.20;;
1593;SDS011;790;47.000;16.084;2023-02-20T05:31:52;2.37;;;2.20;;
1593;SDS011;790;47.000;16.084;2023-02-20T05:34:19;2.37;;;2.27;;
1593;SDS011;790;47.000;16.084;2023-02-20T05:36:49;2.20;;;2.00;;
1593;SDS011;790;47.000;16.084;2023-02-20T05:39:17;2.17;;;2.07;;
1593;SDS011;790;47.000;16.084;2023-02-20T05:41:44;2.60;;;2.00;;
1593;SDS011;790;47.000;16.084;2023-02-20T05:44:13;2.30;;;2.07;;
1593;SDS011;790;47.000;16.084;2023-02-20T05:46:40;2.40;;;2.20;;
1593;SDS011;790;47.000;16.084;2023-02-20T05:49:10;2.60;;;2.40;;
1593;SDS011;790;47.000;16.084;2023-02-20T05:51:37;2.70;;;2.50;;
1593;SDS011;790;47.000;16.084;2023-02-20T05:54:05;2.60;;;2.40;;
1593;SDS011;790;47.000;16.084;2023-02-20T05:56:32;5.37;;;4.87;;
1593;SDS011;790;47.000;16.084;2023-02-20T05:58:59;4.63;;;4.27;;
1593;SDS011;790;47.000;16.084;2023-02-20T06:01:27;4.03;;;3.73;;
1593;SDS011;790;47.000;16.084;2023-02-20T06:03:56;5.07;;;4.07;;
1593;SDS011;790;47.000;16.084;2023-02-20T06:06:31;4.40;;;3.63;;
1593;SDS011;790;47.000;16.084;2023-02-20T06:08:58;3.30;;;3.00;;
1593;SDS011;790;47.000;16.084;2023-02-20T06:11:26;2.57;;;2.47;;
1593;SDS011;790;47.000;16.084;2023-02-20T06:13:53;2.47;;;2.27;;
1593;SDS011;790;47.000;16.084;2023-02-20T06:16:21;2.40;;;2.20;;
1593;SDS011;790;47.000;16.084;2023-02-20T06:18:49;2.23;;;2.13;;
1593;SDS011;790;47.000;16.084;2023-02-20T06:21:17;2.37;;;2.27;;
1593;SDS011;790;47.000;16.084;2023-02-20T06:23:49;1.93;;;1.83;;
1593;SDS011;790;47.000;16.084;2023-02-20T06:26:20;2.33;;;2.23;;
1593;SDS011;790;47.000;16.084;2023-02-20T06:28:48;3.37;;;2.20;;
1593;SDS011;790;47.000;16.084;2023-02-20T06:31:19;2.37;;;2.27;;
1593;SDS011;790;47.000;16.084;2023-02-20T06:33:47;2.33;;;2.23;;
1593;SDS011;790;47.000;16.084;2023-02-20T06:36:17;2.23;;;2.13;;
1593;SDS011;790;47.000;16.084;2023-02-20T06:38:50;2.10;;;2.00;;
1593;SDS011;790;47.000;16.084;2023-02-20T06:41:18;2.40;;;2.30;;
1593;SDS011;790;47.000;16.084;2023-02-20T06:43:45;2.40;;;2.20;;
1593;SDS011;790;47.000;16.084;2023-02-20T06:46:12;2.57;;;2.27;;
1593;SDS011;790;47.000;16.084;2023-02-20T06:48:43;2.50;;;2.20;;
1593;SDS011;790;47.000;16.084;2023-02-20T06:51:11;2.67;;;2.30;;
1593;SDS011;790;47.000;16.084;2023-02-20T06:53:39;2.50;;;2.33;;
1593;SDS011;790;47.000;16.084;2023-02-20T06:56:09;3.20;;;2.20;;
1593;SDS011;790;47.000;16.084;2023-02-20T06:58:48;2.37;;;2.23;;
1593;SDS011;790;47.000;16.084;2023-02-20T07:01:18;2.83;;;2.63;;
1593;SDS011;790;47.000;16.084;2023-02-20T07:03:46;3.40;;;2.90;;
1593;SDS011;790;47.000;16.084;2023-02-20T07:06:14;7.07;;;3.60;;
1593;SDS011;790;47.000;16.084;2023-02-20T07:08:41;3.27;;;3.03;;
1593;SDS011;790;47.000;16.084;2023-02-20T07:11:10;3.20;;;3.00;;
1593;SDS011;790;47.000;16.084;2023-02-20T07:13:38;3.47;;;2.90;;
1593;SDS011;790;47.000;16.084;2023-02-20T07:16:06;3.03;;;2.83;;
1593;SDS011;790;47.000;16.084;2023-02-20T07:18:33;3.17;;;2.77;;
1593;SDS011;790;47.000;16.084;2023-02-20T07:21:00;3.63;;;2.83;;
1593;SDS011;790;47.000;16.084;2023-02-20T07:23:27;3.40;;;3.13;;
1593;SDS011;790;47.000;16.084;2023-02-20T07:25:55;3.00;;;2.80;;
1593;SDS011;790;47.000;16.084;2023-02-20T07:28:23;2.90;;;2.73;;
1593;SDS011;790;47.000;16.084;2023-02-20T07:30:51;2.87;;;2.67;;
1593;SDS011;790;47.000;16.084;2023-02-20T07:33:18;3.17;;;2.97;;
1593;SDS011;790;47.000;16.084;2023-02-20T07:35:45;3.10;;;2.90;;
1593;SDS011;790;47.000;16.084;2023-02-20T07:38:13;3.63;;;3.27;;
1593;SDS011;790;47.000;16.084;2023-02-20T07:40:40;3.37;;;3.17;;
1593;SDS011;790;47.000;16.084;2023-02-20T07:43:08;3.50;;;3.27;;
1593;SDS011;790;47.000;16.084;2023-02-20T07:45:36;2.90;;;2.70;;
1593;SDS011;790;47.000;16.084;2023-02-20T07:48:04;2.97;;;2.77;;
1593;SDS011;790;47.000;16.084;2023-02-20T07:50:32;3.60;;;3.27;;
1593;SDS011;790;47.000;16.084;2023-02-20T07:52:59;2.97;;;2.77;;
1593;SDS011;790;47.000;16.084;2023-02-20T07:55:26;3.00;;;2.80;;
1593;SDS011;790;47.000;16.084;2023-02-20T07:57:53;3.40;;;3.20;;
1593;SDS011;790;47.000;16.084;2023-02-20T08:00:23;3.37;;;3.07;;
1593;SDS011;790;47.000;16.084;2023-02-20T08:02:52;4.83;;;4.33;;
1593;SDS011;790;47.000;16.084;2023-02-20T08:05:20;5.17;;;4.67;;
1593;SDS011;790;47.000;16.084;2023-02-20T08:07:48;4.80;;;4.40;;
1593;SDS011;790;47.000;16.084;2023-02-20T08:10:17;3.67;;;3.47;;
1593;SDS011;790;47.000;16.084;2023-02-20T08:12:46;3.73;;;3.53;;
1593;SDS011;790;47.000;16.084;2023-02-20T08:15:14;3.67;;;3.40;;
1593;SDS011;790;47.000;16.084;2023-02-20T08:17:43;3.70;;;3.40;;
1593;SDS011;790;47.000;16.084;2023-02-20T08:20:15;4.10;;;3.70;;
1593;SDS011;790;47.000;16.084;2023-02-20T08:22:44;3.87;;;3.57;;
1593;SDS011;790;47.000;16.084;2023-02-20T08:25:12;4.10;;;3.80;;
1593;SDS011;790;47.000;16.084;2023-02-20T08:27:40;4.17;;;3.87;;
1593;SDS011;790;47.000;16.084;2023-02-20T08:30:09;3.33;;;3.13;;
1593;SDS011;790;47.000;16.084;2023-02-20T08:32:37;4.00;;;3.70;;
1593;SDS011;790;47.000;16.084;2023-02-20T08:35:05;3.70;;;3.50;;
1593;SDS011;790;47.000;16.084;2023-02-20T08:37:34;3.30;;;3.10;;
1593;SDS011;790;47.000;16.084;2023-02-20T08:40:02;3.50;;;3.30;;
1593;SDS011;790;47.000;16.084;2023-02-20T08:42:32;3.70;;;3.40;;
1593;SDS011;790;47.000;16.084;2023-02-20T08:45:03;3.70;;;3.40;;
1593;SDS011;790;47.000;16.084;2023-02-20T08:47:34;6.10;;;3.50;;
1593;SDS011;790;47.000;16.084;2023-02-20T08:50:02;4.03;;;3.73;;
1593;SDS011;790;47.000;16.084;2023-02-20T08:52:29;4.13;;;3.73;;
1593;SDS011;790;47.000;16.084;2023-02-20T08:54:59;3.83;;;3.53;;
1593;SDS011;790;47.000;16.084;2023-02-20T08:57:26;4.20;;;3.90;;
1593;SDS011;790;47.000;16.084;2023-02-20T08:59:53;3.40;;;3.20;;
1593;SDS011;790;47.000;16.084;2023-02-20T09:02:22;3.90;;;3.60;;
1593;SDS011;790;47.000;16.084;2023-02-20T09:04:52;3.57;;;3.27;;
1593;SDS011;790;47.000;16.084;2023-02-20T09:07:20;3.73;;;3.47;;
1593;SDS011;790;47.000;16.084;2023-02-20T09:09:47;3.70;;;3.40;;
1593;SDS011;790;47.000;16.084;2023-02-20T09:12:17;3.40;;;3.10;;
1593;SDS011;790;47.000;16.084;2023-02-20T09:14:47;3.57;;;3.27;;
1593;SDS011;790;47.000;16.084;2023-02-20T09:17:14;3.30;;;3.10;;
1593;SDS011;790;47.000;16.084;2023-02-20T09:19:42;3.03;;;2.83;;
1593;SDS011;790;47.000;16.084;2023-02-20T09:22:09;3.80;;;3.50;;
1593;SDS011;790;47.000;16.084;2023-02-20T09:24:37;3.53;;;3.23;;
1593;SDS011;790;47.000;16.084;2023-02-20T09:27:06;3.57;;;3.37;;
1593;SDS011;790;47.000;16.084;2023-02-20T09:29:35;3.80;;;3.50;;
1593;SDS011;790;47.000;16.084;2023-02-20T09:32:05;3.60;;;3.40;;
1593;SDS011;790;47.000;16.084;2023-02-20T09:34:33;3.47;;;3.20;;
1593;SDS011;790;47.000;16.084;2023-02-20T09:37:00;3.40;;;3.20;;
1593;SDS011;790;47.000;16.084;2023-02-20T09:39:27;3.80;;;3.50;;
1593;SDS011;790;47.000;16.084;2023-02-20T09:42:02;3.23;;;3.03;;
1593;SDS011;790;47.000;16.084;2023-02-20T09:44:37;4.23;;;3.50;;
1593;SDS011;790;47.000;16.084;2023-02-20T09:47:17;3.70;;;3.50;;
1593;SDS011;790;47.000;16.084;2023-02-20T09:49:52;3.80;;;3.50;;
1593;SDS011;790;47.000;16.084;2023-02-20T09:52:23;4.10;;;3.70;;
1593;SDS011;790;47.000;16.084;2023-02-20T09:54:51;3.77;;;3.47;;
1593;SDS011;790;47.000;16.084;2023-02-20T09:57:25;3.13;;;3.00;;
1593;SDS011;790;47.000;16.084;2023-02-20T09:59:57;3.73;;;3.43;;
1593;SDS011;790;47.000;16.084;2023-02-20T10:02:30;3.50;;;3.20;;
1593;SDS011;790;47.000;16.084;2023-02-20T10:05:00;3.87;;;3.57;;
1593;SDS011;790;47.000;16.084;2023-02-20T10:07:32;3.47;;;3.20;;
1593;SDS011;790;47.000;16.084;2023-02-20T10:10:09;3.60;;;3.27;;
1593;SDS011;790;47.000;16.084;2023-02-20T10:12:49;4.17;;;3.77;;
1593;SDS011;790;47.000;16.084;2023-02-20T10:15:24;3.83;;;3.43;;
1593;SDS011;790;47.000;16.084;2023-02-20T10:17:59;3.27;;;2.97;;
1593;SDS011;790;47.000;16.084;2023-02-20T10:20:35;3.50;;;3.20;;
1593;SDS011;790;47.000;16.084;2023-02-20T10:23:16;3.67;;;3.33;;
1593;SDS011;790;47.000;16.084;2023-02-20T10:25:49;3.77;;;3.40;;
1593;SDS011;790;47.000;16.084;2023-02-20T10:28:26;3.53;;;3.13;;
1593;SDS011;790;47.000;16.084;2023-02-20T10:30:56;2.80;;;2.60;;
1593;SDS011;790;47.000;16.084;2023-02-20T10:33:28;3.27;;;3.07;;
1593;SDS011;790;47.000;16.084;2023-02-20T10:35:59;3.60;;;3.03;;
1593;SDS011;790;47.000;16.084;2023-02-20T10:38:35;3.43;;;3.13;;
1593;SDS011;790;47.000;16.084;2023-02-20T10:41:09;3.53;;;3.30;;
1593;SDS011;790;47.000;16.084;2023-02-20T10:43:46;3.50;;;3.20;;
1593;SDS011;790;47.000;16.084;2023-02-20T10:46:22;3.40;;;3.20;;
1593;SDS011;790;47.000;16.084;2023-02-20T10:48:55;3.57;;;3.27;;
1593;SDS011;790;47.000;16.084;2023-02-20T10:51:28;3.47;;;3.17;;
1593;SDS011;790;47.000;16.084;2023-02-20T10:54:00;3.10;;;2.90;;
1593;SDS011;790;47.000;16.084;2023-02-20T10:56:33;3.00;;;2.70;;
1593;SDS011;790;47.000;16.084;2023-02-20T10:59:06;2.90;;;2.70;;
1593;SDS011;790;47.000;16.084;2023-02-20T11:01:43;2.70;;;2.60;;
1593;SDS011;790;47.000;16.084;2023-02-20T11:04:12;2.60;;;2.40;;
1593;SDS011;790;47.000;16.084;2023-02-20T11:06:46;2.50;;;2.30;;
1593;SDS011;790;47.000;16.084;2023-02-20T11:09:19;2.67;;;2.47;;
1593;SDS011;790;47.000;16.084;2023-02-20T11:11:47;2.73;;;2.53;;
1593;SDS011;790;47.000;16.084;2023-02-20T11:14:15;2.40;;;2.30;;
1593;SDS011;790;47.000;16.084;2023-02-20T11:16:50;2.50;;;2.30;;
1593;SDS011;790;47.000;16.084;2023-02-20T11:19:22;2.23;;;2.10;;
1593;SDS011;790;47.000;16.084;2023-02-20T11:21:54;2.20;;;2.10;;
1593;SDS011;790;47.000;16.084;2023-02-20T11:24:26;2.67;;;2.20;;
1593;SDS011;790;47.000;16.084;2023-02-20T11:26:59;2.20;;;2.10;;
1593;SDS011;790;47.000;16.084;2023-02-20T11:29:41;2.60;;;2.00;;
1593;SDS011;790;47.000;16.084;2023-02-20T11:32:27;1.80;;;1.70;;
1593;SDS011;790;47.000;16.084;2023-02-20T11:35:05;2.60;;;1.77;;
1593;SDS011;790;47.000;16.084;2023-02-20T11:37:45;2.73;;;1.60;;
1593;SDS011;790;47.000;16.084;2023-02-20T11:40:14;2.90;;;1.70;;
1593;SDS011;790;47.000;16.084;2023-02-20T11:42:43;2.00;;;1.90;;
1593;SDS011;790;47.000;16.084;2023-02-20T11:45:12;1.23;;;1.13;;
1593;SDS011;790;47.000;16.084;2023-02-20T11:47:44;1.50;;;1.40;;
1593;SDS011;790;47.000;16.084;2023-02-20T11:50:14;2.07;;;1.90;;
1593;SDS011;790;47.000;16.084;2023-02-20T11:52:59;1.43;;;1.37;;
1593;SDS011;790;47.000;16.084;2023-02-20T11:55:29;2.17;;;1.80;;
1593;SDS011;790;47.000;16.084;2023-02-20T11:57:57;1.43;;;1.40;;
1593;SDS011;790;47.000;16.084;2023-02-20T12:00:25;1.47;;;1.37;;
1593;SDS011;790;47.000;16.084;2023-02-20T12:02:57;2.00;;;1.67;;
1593;SDS011;790;47.000;16.084;2023-02-20T12:05:36;1.70;;;1.60;;
1593;SDS011;790;47.000;16.084;2023-02-20T12:08:19;1.60;;;1.50;;
1593;SDS011;790;47.000;16.084;2023-02-20T12:11:05;1.50;;;1.40;;
1593;SDS011;790;47.000;16.084;2023-02-20T12:13:36;4.30;;;1.90;;
1593;SDS011;790;47.000;16.084;2023-02-20T12:16:11;18.50;;;13.53;;
1593;SDS011;790;47.000;16.084;2023-02-20T12:18:58;22.97;;;14.90;;
1593;SDS011;790;47.000;16.084;2023-02-20T12:21:33;7.60;;;6.77;;
1593;SDS011;790;47.000;16.084;2023-02-20T12:24:11;6.50;;;4.77;;
1593;SDS011;790;47.000;16.084;2023-02-20T12:26:51;5.10;;;4.60;;
1593;SDS011;790;47.000;16.084;2023-02-20T12:29:28;2.10;;;1.90;;
1593;SDS011;790;47.000;16.084;2023-02-20T12:32:08;3.73;;;3.43;;
1593;SDS011;790;47.000;16.084;2023-02-20T12:34:53;3.27;;;2.80;;
1593;SDS011;790;47.000;16.084;2023-02-20T12:37:32;3.23;;;2.93;;
1593;SDS011;790;47.000;16.084;2023-02-20T12:40:20;3.80;;;3.17;;
1593;SDS011;790;47.000;16.084;2023-02-20T12:42:58;1.60;;;1.50;;
1593;SDS011;790;47.000;16.084;2023-02-20T12:45:33;1.97;;;1.87;;
1593;SDS011;790;47.000;16.084;2023-02-20T12:51:01;2.17;;;1.73;;
1593;SDS011;790;47.000;16.084;2023-02-20T12:53:47;4.57;;;2.33;;
1593;SDS011;790;47.000;16.084;2023-02-20T12:56:43;2.13;;;1.90;;
1593;SDS011;790;47.000;16.084;2023-02-20T12:59:21;3.93;;;2.10;;
1593;SDS011;790;47.000;16.084;2023-02-20T13:01:53;1.67;;;1.50;;
1593;SDS011;790;47.000;16.084;2023-02-20T13:04:27;1.50;;;1.40;;
1593;SDS011;790;47.000;16.084;2023-02-20T13:07:02;3.30;;;2.40;;
1593;SDS011;790;47.000;16.084;2023-02-20T13:09:32;1.47;;;1.40;;
1593;SDS011;790;47.000;16.084;2023-02-20T13:12:04;1.23;;;1.13;;
1593;SDS011;790;47.000;16.084;2023-02-20T13:14:41;1.00;;;1.00;;
1593;SDS011;790;47.000;16.084;2023-02-20T13:17:24;1.90;;;1.80;;
1593;SDS011;790;47.000;16.084;2023-02-20T13:19:59;1.43;;;1.37;;
1593;SDS011;790;47.000;16.084;2023-02-20T13:22:38;3.27;;;2.60;;
1593;SDS011;790;47.000;16.084;2023-02-20T13:28:00;3.10;;;2.90;;
1593;SDS011;790;47.000;16.084;2023-02-20T13:30:32;3.67;;;3.37;;
1593;SDS011;790;47.000;16.084;2023-02-20T13:33:10;7.53;;;5.93;;
1593;SDS011;790;47.000;16.084;2023-02-20T13:35:45;4.67;;;4.33;;
1593;SDS011;790;47.000;16.084;2023-02-20T13:38:19;3.67;;;3.40;;
1593;SDS011;790;47.000;16.084;2023-02-20T13:41:01;4.50;;;3.63;;
1593;SDS011;790;47.000;16.084;2023-02-20T13:43:31;3.00;;;2.80;;
1593;SDS011;790;47.000;16.084;2023-02-20T13:46:09;3.43;;;3.10;;
1593;SDS011;790;47.000;16.084;2023-02-20T13:48:45;3.63;;;3.40;;
1593;SDS011;790;47.000;16.084;2023-02-20T13:51:32;3.00;;;2.80;;
1593;SDS011;790;47.000;16.084;2023-02-20T13:56:59;4.07;;;2.93;;
1593;SDS011;790;47.000;16.084;2023-02-20T13:59:34;2.90;;;2.70;;
1593;SDS011;790;47.000;16.084;2023-02-20T14:02:11;2.20;;;2.10;;
1593;SDS011;790;47.000;16.084;2023-02-20T14:04:54;3.37;;;2.47;;
1593;SDS011;790;47.000;16.084;2023-02-20T14:07:30;2.77;;;2.57;;
1593;SDS011;790;47.000;16.084;2023-02-20T14:10:04;3.00;;;2.80;;
1593;SDS011;790;47.000;16.084;2023-02-20T14:12:40;4.00;;;2.57;;
1593;SDS011;790;47.000;16.084;2023-02-20T14:15:07;4.30;;;2.40;;
1593;SDS011;790;47.000;16.084;2023-02-20T14:17:34;2.70;;;2.50;;
1593;SDS011;790;47.000;16.084;2023-02-20T14:20:04;2.90;;;2.70;;
1593;SDS011;790;47.000;16.084;2023-02-20T14:22:41;3.07;;;2.87;;
1593;SDS011;790;47.000;16.084;2023-02-20T14:25:17;4.03;;;3.60;;
1593;SDS011;790;47.000;16.084;2023-02-20T14:27:48;3.60;;;3.30;;
1593;SDS011;790;47.000;16.084;2023-02-20T14:30:17;4.20;;;3.80;;
1593;SDS011;790;47.000;16.084;2023-02-20T14:32:48;4.33;;;3.30;;
1593;SDS011;790;47.000;16.084;2023-02-20T14:35:28;3.43;;;3.23;;
1593;SDS011;790;47.000;16.084;2023-02-20T14:41:10;3.23;;;2.93;;
1593;SDS011;790;47.000;16.084;2023-02-20T14:43:43;12.57;;;9.87;;
1593;SDS011;790;47.000;16.084;2023-02-20T14:46:19;13.70;;;11.80;;
1593;SDS011;790;47.000;16.084;2023-02-20T14:48:50;12.60;;;11.10;;
1593;SDS011;790;47.000;16.084;2023-02-20T14:51:30;17.30;;;13.97;;
1593;SDS011;790;47.000;16.084;2023-02-20T14:54:01;11.87;;;10.53;;
1593;SDS011;790;47.000;16.084;2023-02-20T14:56:38;11.13;;;8.93;;
1593;SDS011;790;47.000;16.084;2023-02-20T14:59:14;20.93;;;16.73;;
1593;SDS011;790;47.000;16.084;2023-02-20T15:01:48;23.03;;;16.80;;
1593;SDS011;790;47.000;16.084;2023-02-20T15:04:16;30.70;;;23.40;;
1593;SDS011;790;47.000;16.084;2023-02-20T15:06:45;23.23;;;19.27;;
1593;SDS011;790;47.000;16.084;2023-02-20T15:09:14;26.40;;;21.10;;
1593;SDS011;790;47.000;16.084;2023-02-20T15:11:47;43.03;;;32.40;;
1593;SDS011;790;47.000;16.084;2023-02-20T15:14:16;27.90;;;22.53;;
1593;SDS011;790;47.000;16.084;2023-02-20T15:16:46;16.50;;;11.77;;
1593;SDS011;790;47.000;16.084;2023-02-20T15:19:20;22.53;;;17.87;;
1593;SDS011;790;47.000;16.084;2023-02-20T15:21:57;9.97;;;8.97;;
1593;SDS011;790;47.000;16.084;2023-02-20T15:24:37;8.73;;;7.20;;
1593;SDS011;790;47.000;16.084;2023-02-20T15:27:22;10.60;;;8.90;;
1593;SDS011;790;47.000;16.084;2023-02-20T15:30:08;8.27;;;7.47;;
1593;SDS011;790;47.000;16.084;2023-02-20T15:32:39;9.33;;;8.37;;
1593;SDS011;790;47.000;16.084;2023-02-20T15:35:11;7.90;;;7.20;;
1593;SDS011;790;47.000;16.084;2023-02-20T15:37:41;8.43;;;6.57;;
1593;SDS011;790;47.000;16.084;2023-02-20T15:40:16;21.60;;;13.00;;
1593;SDS011;790;47.000;16.084;2023-02-20T15:42:47;14.93;;;12.07;;
1593;SDS011;790;47.000;16.084;2023-02-20T15:45:20;14.53;;;8.97;;
1593;SDS011;790;47.000;16.084;2023-02-20T15:47:48;9.63;;;7.70;;
1593;SDS011;790;47.000;16.084;2023-02-20T15:50:18;7.70;;;5.40;;
1593;SDS011;790;47.000;16.084;2023-02-20T15:52:46;6.13;;;5.13;;
1593;SDS011;790;47.000;16.084;2023-02-20T15:55:16;5.03;;;4.63;;
1593;SDS011;790;47.000;16.084;2023-02-20T15:57:49;6.60;;;5.13;;